createdAt,value
2023-01-20T00:02:05.984Z,12.43
2023-01-20T00:04:33.682Z,17.40
2023-01-20T00:07:01.346Z,15.00
2023-01-20T00:09:30.607Z,19.23
2023-01-20T00:11:58.290Z,18.83
2023-01-20T00:14:27.777Z,21.73
2023-01-20T00:16:57.330Z,19.73
2023-01-20T00:19:25.196Z,20.37
2023-01-20T00:21:52.883Z,21.17
2023-01-20T00:24:20.604Z,24.23
2023-01-20T00:26:49.721Z,23.10
2023-01-20T00:29:17.537Z,21.40
2023-01-20T00:31:45.297Z,28.90
2023-01-20T00:34:13.074Z,33.63
2023-01-20T00:36:40.779Z,22.30
2023-01-20T00:39:08.536Z,25.90
2023-01-20T00:41:36.281Z,24.27
2023-01-20T00:44:05.506Z,32.87
2023-01-20T00:46:33.326Z,34.30
2023-01-20T00:49:01.070Z,28.17
2023-01-20T00:51:28.905Z,32.00
2023-01-20T00:53:56.593Z,31.30
2023-01-20T00:56:24.300Z,36.90
2023-01-20T00:58:52.060Z,43.93
2023-01-20T01:01:21.151Z,37.03
2023-01-20T01:03:49.049Z,35.80
2023-01-20T01:06:18.769Z,34.83
2023-01-20T01:08:46.640Z,38.30
2023-01-20T01:11:14.555Z,43.73
2023-01-20T01:13:42.743Z,40.87
2023-01-20T01:16:14.831Z,38.73
2023-01-20T01:18:44.441Z,39.17
2023-01-20T01:21:15.135Z,39.57
2023-01-20T01:23:42.888Z,41.43
2023-01-20T01:26:11.163Z,39.97
2023-01-20T01:28:39.715Z,40.67
2023-01-20T01:31:09.013Z,43.83
2023-01-20T01:33:37.297Z,40.20
2023-01-20T01:36:08.546Z,51.87
2023-01-20T01:38:36.342Z,42.90
2023-01-20T01:41:04.029Z,42.40
2023-01-20T01:43:33.712Z,45.00
2023-01-20T01:46:01.440Z,43.90
2023-01-20T01:48:32.409Z,41.03
2023-01-20T01:51:05.419Z,42.00
2023-01-20T01:53:41.128Z,48.03
2023-01-20T01:56:10.788Z,44.67
2023-01-20T01:58:42.937Z,48.17
2023-01-20T02:01:12.113Z,48.43
2023-01-20T02:03:45.840Z,48.40
2023-01-20T02:06:15.741Z,50.53
2023-01-20T02:08:45.227Z,48.10
2023-01-20T02:11:12.979Z,53.57
2023-01-20T02:13:41.214Z,57.27
2023-01-20T02:16:16.436Z,52.93
2023-01-20T02:18:59.303Z,60.63
2023-01-20T02:22:04.498Z,54.80
2023-01-20T02:24:59.373Z,54.27
2023-01-20T02:27:51.123Z,52.77
2023-01-20T02:30:38.662Z,63.67
2023-01-20T02:33:11.358Z,71.10
2023-01-20T02:35:45.158Z,69.10
2023-01-20T02:38:20.770Z,65.93
2023-01-20T02:40:57.372Z,69.03
2023-01-20T02:43:37.793Z,73.00
2023-01-20T02:46:12.483Z,73.77
2023-01-20T02:48:45.103Z,67.27
2023-01-20T02:51:15.818Z,83.73
2023-01-20T02:53:49.460Z,67.83
2023-01-20T02:56:18.936Z,72.60
2023-01-20T02:58:51.221Z,67.50
2023-01-20T03:01:25.202Z,76.13
2023-01-20T03:03:58.184Z,73.73
2023-01-20T03:06:31.294Z,69.13
2023-01-20T03:09:01.461Z,80.90
2023-01-20T03:11:32.414Z,71.77
2023-01-20T03:14:07.407Z,70.90
2023-01-20T03:16:35.561Z,72.30
2023-01-20T03:19:05.099Z,68.37
2023-01-20T03:21:34.257Z,76.33
2023-01-20T03:24:04.170Z,72.17
2023-01-20T03:26:31.906Z,64.53
2023-01-20T03:29:00.094Z,73.97
2023-01-20T03:31:31.081Z,66.03
2023-01-20T03:34:03.810Z,79.30
2023-01-20T03:36:34.475Z,71.73
2023-01-20T03:39:02.362Z,72.63
2023-01-20T03:41:37.506Z,68.40
2023-01-20T03:44:13.571Z,65.33
2023-01-20T03:46:47.125Z,65.67
2023-01-20T03:49:22.713Z,70.57
2023-01-20T03:52:01.712Z,64.87
2023-01-20T03:54:35.043Z,57.93
2023-01-20T03:57:07.656Z,58.13
2023-01-20T03:59:38.579Z,60.03
2023-01-20T04:02:09.094Z,64.20
2023-01-20T04:04:39.982Z,55.70
2023-01-20T04:07:13.097Z,56.03
2023-01-20T04:09:47.022Z,61.30
2023-01-20T04:12:15.051Z,58.50
2023-01-20T04:14:42.856Z,53.63
2023-01-20T04:17:11.037Z,53.87
2023-01-20T04:19:38.827Z,58.90
2023-01-20T04:22:14.052Z,52.17
2023-01-20T04:24:45.780Z,56.07
2023-01-20T04:27:13.490Z,49.47
2023-01-20T04:29:41.997Z,49.63
2023-01-20T04:32:11.764Z,50.17
2023-01-20T04:34:39.728Z,51.30
2023-01-20T04:37:07.372Z,51.67
2023-01-20T04:39:36.459Z,50.80
2023-01-20T04:42:04.912Z,46.40
2023-01-20T04:44:32.674Z,51.10
2023-01-20T04:47:00.372Z,56.10
2023-01-20T04:49:28.278Z,49.17
2023-01-20T04:51:55.992Z,50.03
2023-01-20T04:54:23.680Z,51.93
2023-01-20T04:56:52.796Z,46.67
2023-01-20T04:59:20.740Z,49.03
2023-01-20T05:01:48.650Z,51.10
2023-01-20T05:04:16.429Z,47.67
2023-01-20T05:06:44.988Z,47.27
2023-01-20T05:09:15.191Z,46.83
2023-01-20T05:11:43.019Z,46.37
2023-01-20T05:14:12.664Z,44.63
2023-01-20T05:16:40.421Z,42.13
2023-01-20T05:19:08.104Z,44.93
2023-01-20T05:21:35.799Z,51.63
2023-01-20T05:24:03.514Z,47.17
2023-01-20T05:26:32.791Z,49.33
2023-01-20T05:29:00.500Z,46.50
2023-01-20T05:31:29.770Z,48.37
2023-01-20T05:33:57.611Z,48.07
2023-01-20T05:36:25.449Z,44.67
2023-01-20T05:38:55.681Z,49.00
2023-01-20T05:41:23.451Z,50.20
2023-01-20T05:43:54.081Z,45.77
2023-01-20T05:46:22.108Z,42.63
2023-01-20T05:48:51.824Z,46.67
2023-01-20T05:51:19.666Z,42.43
2023-01-20T05:53:47.419Z,52.17
2023-01-20T05:56:16.200Z,49.77
2023-01-20T05:58:44.323Z,47.57
2023-01-20T06:01:14.163Z,47.47
2023-01-20T06:03:42.213Z,55.43
2023-01-20T06:06:15.576Z,46.23
2023-01-20T06:08:43.753Z,47.27
2023-01-20T06:11:11.569Z,43.77
2023-01-20T06:13:42.125Z,44.70
2023-01-20T06:16:09.865Z,41.57
2023-01-20T06:18:37.554Z,40.77
2023-01-20T06:21:05.534Z,40.87
2023-01-20T06:23:34.606Z,42.90
2023-01-20T06:26:03.801Z,40.47
2023-01-20T06:28:32.906Z,49.10
2023-01-20T06:31:02.111Z,40.33
2023-01-20T06:33:29.884Z,46.00
2023-01-20T06:35:58.031Z,42.20
2023-01-20T06:38:27.553Z,42.93
2023-01-20T06:40:59.752Z,54.23
2023-01-20T06:43:29.592Z,44.43
2023-01-20T06:46:01.182Z,42.70
2023-01-20T06:48:29.285Z,41.47
2023-01-20T06:51:01.744Z,43.30
2023-01-20T06:53:29.470Z,45.77
2023-01-20T06:55:59.919Z,52.27
2023-01-20T06:58:30.085Z,44.47
2023-01-20T07:00:59.126Z,42.00
2023-01-20T07:03:26.911Z,34.67
2023-01-20T07:05:58.722Z,40.83
2023-01-20T07:08:26.558Z,43.87
2023-01-20T07:10:54.311Z,44.40
2023-01-20T07:13:23.384Z,45.93
2023-01-20T07:15:51.162Z,38.57
2023-01-20T07:18:18.904Z,41.23
2023-01-20T07:20:46.615Z,43.53
2023-01-20T07:23:14.434Z,40.27
2023-01-20T07:25:42.148Z,41.17
2023-01-20T07:28:09.875Z,39.20
2023-01-20T07:30:38.962Z,40.60
2023-01-20T07:33:06.733Z,37.10
2023-01-20T07:35:34.516Z,43.37
2023-01-20T07:38:02.583Z,36.47
2023-01-20T07:40:30.335Z,38.93
2023-01-20T07:42:58.024Z,35.70
2023-01-20T07:45:25.894Z,43.73
2023-01-20T07:47:58.064Z,33.13
2023-01-20T07:50:25.780Z,39.77
2023-01-20T07:52:54.852Z,35.97
2023-01-20T07:55:25.005Z,40.73
2023-01-20T07:57:52.900Z,38.40
2023-01-20T08:00:21.500Z,38.17
2023-01-20T08:02:49.340Z,39.67
2023-01-20T08:05:18.430Z,38.63
2023-01-20T08:07:46.154Z,44.43
2023-01-20T08:10:13.825Z,37.50
2023-01-20T08:12:41.537Z,35.20
2023-01-20T08:15:10.643Z,35.00
2023-01-20T08:17:38.284Z,40.37
2023-01-20T08:20:07.059Z,37.30
2023-01-20T08:22:36.840Z,32.97
2023-01-20T08:25:04.825Z,36.57
2023-01-20T08:27:32.494Z,47.30
2023-01-20T08:30:00.177Z,48.77
2023-01-20T08:32:27.882Z,43.63
2023-01-20T08:34:55.805Z,83.87
2023-01-20T08:37:23.647Z,38.57
2023-01-20T08:39:52.749Z,34.30
2023-01-20T08:42:20.584Z,34.80
2023-01-20T08:44:52.938Z,35.37
2023-01-20T08:47:20.672Z,29.97
2023-01-20T08:49:48.420Z,28.03
2023-01-20T08:52:16.084Z,31.80
2023-01-20T08:54:43.777Z,29.03
2023-01-20T08:57:14.982Z,35.33
2023-01-20T08:59:43.102Z,31.17
2023-01-20T09:02:10.982Z,28.63
2023-01-20T09:04:38.708Z,33.97
2023-01-20T09:07:06.658Z,32.20
2023-01-20T09:09:34.315Z,30.37
2023-01-20T09:12:02.414Z,30.57
2023-01-20T09:14:31.464Z,32.70
2023-01-20T09:17:00.451Z,35.40
2023-01-20T09:19:28.247Z,28.43
2023-01-20T09:21:56.136Z,34.43
2023-01-20T09:24:24.857Z,37.50
2023-01-20T09:26:53.261Z,28.90
2023-01-20T09:29:21.665Z,28.80
2023-01-20T09:31:53.557Z,25.40
2023-01-20T09:34:24.924Z,28.17
2023-01-20T09:36:53.178Z,27.33
2023-01-20T09:39:39.445Z,25.43
2023-01-20T09:42:43.409Z,24.63
2023-01-20T09:45:24.909Z,26.97
2023-01-20T09:48:00.131Z,28.93
2023-01-20T09:50:55.232Z,24.00
2023-01-20T09:53:47.158Z,26.53
2023-01-20T09:56:17.832Z,25.93
2023-01-20T09:58:51.241Z,26.87
2023-01-20T10:01:24.465Z,27.40
2023-01-20T10:03:57.796Z,29.27
2023-01-20T10:06:33.386Z,26.37
2023-01-20T10:09:06.533Z,24.57
2023-01-20T10:11:39.148Z,28.30
2023-01-20T10:14:14.994Z,25.07
2023-01-20T10:16:49.691Z,22.60
2023-01-20T10:19:27.055Z,30.60
2023-01-20T10:22:06.249Z,20.30
2023-01-20T10:24:40.127Z,27.03
2023-01-20T10:27:07.868Z,24.30
2023-01-20T10:29:38.673Z,23.00
2023-01-20T10:32:13.732Z,23.70
2023-01-20T10:34:47.085Z,23.10
2023-01-20T10:37:16.269Z,24.00
2023-01-20T10:39:49.301Z,21.27
2023-01-20T10:42:18.243Z,23.43
2023-01-20T10:44:48.477Z,22.67
2023-01-20T10:47:19.358Z,21.47
2023-01-20T10:50:27.964Z,21.87
2023-01-20T10:53:13.553Z,20.83
2023-01-20T10:55:56.518Z,24.37
2023-01-20T10:58:28.395Z,17.67
2023-01-20T11:00:57.033Z,22.63
2023-01-20T11:03:26.873Z,20.57
2023-01-20T11:05:55.984Z,23.87
2023-01-20T11:08:27.137Z,21.93
2023-01-20T11:10:57.604Z,23.70
2023-01-20T11:13:25.864Z,25.83
2023-01-20T11:15:57.602Z,34.87
2023-01-20T11:18:29.128Z,41.63
2023-01-20T11:21:01.512Z,23.67
2023-01-20T11:23:41.670Z,30.37
2023-01-20T11:26:20.988Z,95.47
2023-01-20T11:28:53.350Z,47.47
2023-01-20T11:31:22.542Z,19.37
2023-01-20T11:33:59.713Z,21.23
2023-01-20T11:36:29.388Z,22.37
2023-01-20T11:38:58.636Z,20.33
2023-01-20T11:41:27.915Z,19.17
2023-01-20T11:43:57.851Z,26.47
2023-01-20T11:46:29.087Z,21.03
2023-01-20T11:49:18.541Z,20.53
2023-01-20T11:51:50.914Z,19.23
2023-01-20T11:54:21.877Z,21.77
2023-01-20T11:56:54.356Z,19.43
2023-01-20T11:59:28.931Z,21.13
2023-01-20T12:02:02.363Z,19.97
2023-01-20T12:04:45.288Z,21.10
2023-01-20T12:07:19.020Z,19.10
2023-01-20T12:09:51.470Z,21.43
2023-01-20T12:12:29.013Z,20.57
2023-01-20T12:15:03.268Z,22.37
2023-01-20T12:17:41.776Z,17.87
2023-01-20T12:20:20.349Z,17.57
2023-01-20T12:23:00.065Z,18.00
2023-01-20T12:25:31.105Z,20.47
2023-01-20T12:28:05.276Z,20.80
2023-01-20T12:30:59.226Z,19.00
2023-01-20T12:33:29.793Z,20.47
2023-01-20T12:36:39.879Z,19.30
2023-01-20T12:39:29.433Z,20.10
2023-01-20T12:42:24.086Z,18.77
2023-01-20T12:44:54.816Z,22.93
2023-01-20T12:47:38.849Z,20.03
2023-01-20T12:50:24.826Z,19.03
2023-01-20T12:53:05.110Z,20.73
2023-01-20T12:55:45.524Z,20.40
2023-01-20T12:58:24.692Z,20.20
2023-01-20T13:01:19.081Z,17.80
2023-01-20T13:04:32.939Z,16.27
2023-01-20T13:07:13.288Z,20.80
2023-01-20T13:09:57.803Z,19.10
2023-01-20T13:12:46.247Z,19.70
2023-01-20T13:15:20.068Z,16.17
2023-01-20T13:18:02.836Z,22.80
2023-01-20T13:20:31.684Z,16.33
2023-01-20T13:23:03.938Z,20.23
2023-01-20T13:25:33.176Z,19.50
2023-01-20T13:28:03.617Z,19.17
2023-01-20T13:30:48.001Z,22.63
2023-01-20T13:33:19.295Z,20.27
2023-01-20T13:35:50.221Z,25.63
2023-01-20T13:38:27.910Z,19.63
2023-01-20T13:40:58.628Z,27.40
2023-01-20T13:43:51.142Z,23.07
2023-01-20T13:46:39.441Z,18.40
2023-01-20T13:49:29.716Z,17.87
2023-01-20T13:51:57.801Z,16.97
2023-01-20T13:54:48.959Z,14.53
2023-01-20T13:57:46.930Z,18.20
2023-01-20T14:00:20.867Z,17.73
2023-01-20T14:02:50.125Z,19.20
2023-01-20T14:05:32.560Z,18.00
2023-01-20T14:08:00.869Z,21.90
2023-01-20T14:10:29.247Z,18.10
2023-01-20T14:12:56.923Z,18.20
2023-01-20T14:15:36.823Z,20.03
2023-01-20T14:18:05.696Z,18.67
2023-01-20T14:20:33.510Z,20.23
2023-01-20T14:23:27.759Z,18.10
2023-01-20T14:26:04.298Z,20.53
2023-01-20T14:28:32.593Z,21.50
2023-01-20T14:31:18.809Z,15.10
2023-01-20T14:33:57.852Z,16.47
2023-01-20T14:36:27.821Z,16.37
2023-01-20T14:38:58.697Z,22.27
2023-01-20T14:41:29.474Z,17.30
2023-01-20T14:43:58.108Z,21.97
2023-01-20T14:46:29.051Z,16.57
2023-01-20T14:48:58.080Z,18.47
2023-01-20T14:51:26.267Z,18.83
2023-01-20T14:54:28.503Z,16.33
2023-01-20T14:56:56.556Z,16.73
2023-01-20T14:59:25.202Z,18.97
2023-01-20T15:01:56.750Z,18.23
2023-01-20T15:04:24.736Z,17.20
2023-01-20T15:06:54.742Z,19.23
2023-01-20T15:09:28.256Z,19.23
2023-01-20T15:12:32.184Z,19.77
2023-01-20T15:15:11.732Z,19.60
2023-01-20T15:18:04.636Z,19.00
2023-01-20T15:20:34.203Z,18.97
2023-01-20T15:23:02.072Z,22.20
2023-01-20T15:25:30.346Z,17.60
2023-01-20T15:27:58.803Z,18.77
2023-01-20T15:30:29.806Z,18.33
2023-01-20T15:32:59.133Z,18.83
2023-01-20T15:35:27.007Z,16.60
2023-01-20T15:37:55.638Z,14.70
2023-01-20T15:40:25.111Z,16.20
2023-01-20T15:42:53.545Z,23.03
2023-01-20T15:45:21.441Z,22.33
2023-01-20T15:47:49.774Z,18.03
2023-01-20T15:50:21.445Z,19.70
2023-01-20T15:52:49.597Z,18.67
2023-01-20T15:55:19.169Z,16.10
2023-01-20T15:57:50.861Z,16.13
2023-01-20T16:00:20.535Z,14.37
2023-01-20T16:02:48.518Z,19.13
2023-01-20T16:05:17.875Z,15.17
2023-01-20T16:07:49.470Z,16.60
2023-01-20T16:10:19.500Z,17.53
2023-01-20T16:12:48.203Z,15.20
2023-01-20T16:15:18.198Z,13.23
2023-01-20T16:17:46.030Z,17.97
2023-01-20T16:20:19.801Z,15.00
2023-01-20T16:22:48.858Z,19.30
2023-01-20T16:25:17.158Z,17.80
2023-01-20T16:27:45.155Z,17.30
2023-01-20T16:30:16.185Z,15.93
2023-01-20T16:32:46.189Z,22.03
2023-01-20T16:35:14.687Z,18.90
2023-01-20T16:37:43.447Z,15.20
2023-01-20T16:40:16.653Z,17.23
2023-01-20T16:42:44.542Z,15.77
2023-01-20T16:45:23.039Z,15.97
2023-01-20T16:47:51.016Z,15.17
2023-01-20T16:50:19.234Z,19.00
2023-01-20T16:52:46.958Z,23.47
2023-01-20T16:55:16.095Z,73.33
2023-01-20T16:57:44.361Z,32.30
2023-01-20T17:00:13.225Z,32.60
2023-01-20T17:02:40.956Z,102.07
2023-01-20T17:05:09.705Z,58.27
2023-01-20T17:07:37.495Z,17.63
2023-01-20T17:10:05.783Z,21.13
2023-01-20T17:12:35.112Z,103.90
2023-01-20T17:15:02.821Z,28.57
2023-01-20T17:17:30.526Z,19.00
2023-01-20T17:19:58.223Z,16.37
2023-01-20T17:22:26.120Z,20.13
2023-01-20T17:24:53.777Z,18.03
2023-01-20T17:27:21.543Z,20.07
2023-01-20T17:29:50.559Z,19.60
2023-01-20T17:32:18.244Z,21.07
2023-01-20T17:34:45.941Z,18.67
2023-01-20T17:37:13.651Z,21.77
2023-01-20T17:39:42.751Z,24.43
2023-01-20T17:42:10.580Z,20.43
2023-01-20T17:44:38.735Z,22.53
2023-01-20T17:47:07.835Z,21.87
2023-01-20T17:49:35.580Z,29.20
2023-01-20T17:52:03.352Z,28.43
2023-01-20T17:54:31.112Z,59.23
2023-01-20T17:56:58.832Z,73.40
2023-01-20T17:59:26.852Z,89.20
2023-01-20T18:01:55.381Z,66.77
2023-01-20T18:04:24.437Z,39.80
2023-01-20T18:06:52.121Z,27.83
2023-01-20T18:09:19.798Z,27.53
2023-01-20T18:11:47.527Z,18.57
2023-01-20T18:14:15.221Z,20.93
2023-01-20T18:16:43.300Z,20.37
2023-01-20T18:19:13.006Z,26.93
2023-01-20T18:21:43.658Z,18.53
2023-01-20T18:24:12.651Z,17.67
2023-01-20T18:26:42.493Z,18.37
2023-01-20T18:29:14.937Z,21.60
2023-01-20T18:31:44.748Z,18.60
2023-01-20T18:34:15.698Z,21.80
2023-01-20T18:36:46.260Z,23.13
2023-01-20T18:39:15.858Z,18.67
2023-01-20T18:41:44.443Z,16.67
2023-01-20T18:44:12.215Z,18.93
2023-01-20T18:46:40.208Z,21.67
2023-01-20T18:49:09.822Z,21.73
2023-01-20T18:51:38.252Z,22.83
2023-01-20T18:54:10.451Z,29.87
2023-01-20T18:56:38.825Z,22.47
2023-01-20T18:59:08.071Z,28.17
2023-01-20T19:01:39.833Z,27.17
2023-01-20T19:04:09.883Z,25.00
2023-01-20T19:06:40.320Z,25.37
2023-01-20T19:09:10.136Z,24.47
2023-01-20T19:11:40.078Z,22.07
2023-01-20T19:14:10.981Z,22.00
2023-01-20T19:16:42.172Z,20.20
2023-01-20T19:19:11.797Z,25.90
2023-01-20T19:21:39.774Z,20.70
2023-01-20T19:24:11.891Z,22.57
2023-01-20T19:26:39.988Z,20.27
2023-01-20T19:29:09.563Z,18.10
2023-01-20T19:31:39.871Z,19.17
2023-01-20T19:34:09.143Z,22.00
2023-01-20T19:36:37.764Z,22.70
2023-01-20T19:39:06.044Z,19.73
2023-01-20T19:41:36.323Z,19.50
2023-01-20T19:44:06.782Z,18.93
2023-01-20T19:46:37.347Z,18.83
2023-01-20T19:49:05.490Z,17.97
2023-01-20T19:51:33.217Z,23.83
2023-01-20T19:54:02.261Z,20.73
2023-01-20T19:56:32.261Z,19.83
2023-01-20T19:59:02.318Z,20.70
2023-01-20T20:01:31.983Z,21.63
2023-01-20T20:04:00.839Z,22.00
2023-01-20T20:06:30.631Z,22.73
2023-01-20T20:08:59.848Z,24.40
2023-01-20T20:11:27.950Z,22.17
2023-01-20T20:13:56.791Z,24.47
2023-01-20T20:16:28.176Z,25.90
2023-01-20T20:18:56.794Z,26.07
2023-01-20T20:21:25.593Z,31.33
2023-01-20T20:23:54.812Z,25.87
2023-01-20T20:26:23.737Z,23.60
2023-01-20T20:28:52.031Z,28.27
2023-01-20T20:31:22.274Z,26.23
2023-01-20T20:33:51.446Z,22.87
2023-01-20T20:36:19.186Z,22.67
2023-01-20T20:38:51.249Z,22.23
2023-01-20T20:41:19.487Z,26.10
2023-01-20T20:43:47.400Z,26.13
2023-01-20T20:46:16.799Z,22.43
2023-01-20T20:48:44.666Z,19.97
2023-01-20T20:51:18.190Z,21.73
2023-01-20T20:53:46.489Z,20.47
2023-01-20T20:56:17.121Z,24.30
2023-01-20T20:59:00.323Z,27.27
2023-01-20T21:01:30.355Z,25.93
2023-01-20T21:04:00.248Z,25.80
2023-01-20T21:06:30.595Z,25.13
2023-01-20T21:08:59.471Z,27.23
2023-01-20T21:11:27.975Z,29.60
2023-01-20T21:13:56.185Z,24.87
2023-01-20T21:16:25.109Z,27.00
2023-01-20T21:18:56.162Z,32.77
2023-01-20T21:21:24.777Z,39.13
2023-01-20T21:23:56.181Z,44.33
2023-01-20T21:26:25.908Z,38.87
2023-01-20T21:28:54.910Z,40.07
2023-01-20T21:31:26.632Z,35.23
2023-01-20T21:33:56.996Z,38.07
2023-01-20T21:36:25.419Z,37.90
2023-01-20T21:38:54.620Z,29.67
2023-01-20T21:41:22.486Z,29.23
2023-01-20T21:44:07.943Z,31.20
2023-01-20T21:46:39.329Z,27.83
2023-01-20T21:49:26.230Z,33.20
2023-01-20T21:52:11.444Z,34.57
2023-01-20T21:54:41.524Z,30.17
2023-01-20T21:57:10.177Z,29.07
2023-01-20T21:59:38.124Z,31.90
2023-01-20T22:02:06.183Z,29.37
2023-01-20T22:04:34.196Z,28.33
2023-01-20T22:07:02.060Z,31.53
2023-01-20T22:09:30.201Z,32.37
2023-01-20T22:11:59.361Z,28.03
2023-01-20T22:14:27.186Z,32.20
2023-01-20T22:16:54.907Z,28.83
2023-01-20T22:19:22.663Z,32.77
2023-01-20T22:21:50.347Z,27.77
2023-01-20T22:24:18.501Z,29.40
2023-01-20T22:26:48.063Z,28.37
2023-01-20T22:29:18.506Z,32.83
2023-01-20T22:31:46.470Z,29.50
2023-01-20T22:34:14.279Z,36.83
2023-01-20T22:36:42.046Z,38.90
2023-01-20T22:39:12.898Z,45.93
2023-01-20T22:41:40.972Z,51.03
2023-01-20T22:44:08.843Z,34.13
2023-01-20T22:46:37.960Z,42.83
2023-01-20T22:49:05.745Z,35.87
2023-01-20T22:51:33.566Z,32.80
2023-01-20T22:54:02.374Z,32.43
2023-01-20T22:56:31.760Z,30.37
2023-01-20T22:59:00.762Z,29.90
2023-01-20T23:01:30.366Z,30.27
2023-01-20T23:04:01.642Z,35.87
2023-01-20T23:06:33.248Z,32.80
2023-01-20T23:09:02.212Z,33.87
2023-01-20T23:11:30.041Z,36.33
2023-01-20T23:13:58.254Z,41.23
2023-01-20T23:16:26.014Z,29.83
2023-01-20T23:18:53.699Z,31.10
2023-01-20T23:21:24.317Z,36.40
2023-01-20T23:23:54.682Z,33.43
2023-01-20T23:26:24.530Z,35.50
2023-01-20T23:28:53.599Z,31.97
2023-01-20T23:31:22.326Z,35.30
2023-01-20T23:33:50.693Z,39.17
2023-01-20T23:36:20.921Z,35.07
2023-01-20T23:38:50.189Z,37.97
2023-01-20T23:41:18.188Z,36.07
2023-01-20T23:43:45.958Z,35.30
2023-01-20T23:46:13.698Z,35.17
2023-01-20T23:48:41.412Z,39.47
2023-01-20T23:51:09.210Z,34.90
2023-01-20T23:53:40.371Z,35.47
2023-01-20T23:56:13.527Z,31.07
2023-01-20T23:58:41.588Z,29.63
